Time;durP1;ratioP1;P1;durP2;ratioP2;P2;SDS_P1;SDS_P2;PMS_P1;PMS_P2;Temp;Humidity;BMP_temperature;BMP_pressure;BME280_temperature;BME280_humidity;BME280_pressure;Samples;Min_cycle;Max_cycle;Signal;HPM_P1;HPM_P2
2021/09/18 00:02:10;;;;;;;3.70;2.22;;;19.70;99.90;;;;;;5052964;28;20017;-77
2021/09/18 00:04:36;;;;;;;3.15;1.98;;;19.70;99.90;;;;;;5052473;28;20021;-77
2021/09/18 00:07:02;;;;;;;1.95;1.70;;;19.70;99.90;;;;;;5052757;28;20028;-77
2021/09/18 00:09:27;;;;;;;5.30;1.75;;;19.70;99.90;;;;;;5052628;28;20048;-77
2021/09/18 00:11:53;;;;;;;2.00;1.77;;;19.70;99.90;;;;;;5052797;28;20035;-77
2021/09/18 00:14:20;;;;;;;1.85;1.75;;;19.70;99.90;;;;;;5052636;28;20021;-77
2021/09/18 00:16:47;;;;;;;5.10;2.20;;;19.80;99.90;;;;;;5052587;28;20032;-77
2021/09/18 00:19:12;;;;;;;3.63;1.80;;;19.70;99.90;;;;;;5052620;28;20123;-77
2021/09/18 00:21:38;;;;;;;6.85;1.98;;;19.70;99.90;;;;;;5052681;28;20044;-77
2021/09/18 00:24:05;;;;;;;3.80;2.17;;;19.80;99.90;;;;;;5052639;28;20060;-77
2021/09/18 00:26:34;;;;;;;1.77;1.67;;;19.80;99.90;;;;;;5052354;28;20033;-77
2021/09/18 00:29:01;;;;;;;2.13;1.80;;;19.80;99.90;;;;;;5052393;28;20104;-77
2021/09/18 00:31:27;;;;;;;1.60;1.50;;;19.80;99.90;;;;;;5052315;28;20131;-77
2021/09/18 00:33:53;;;;;;;2.22;1.70;;;19.80;99.90;;;;;;5045437;28;20029;-77
2021/09/18 00:36:19;;;;;;;3.80;1.60;;;19.80;99.90;;;;;;5031143;28;20456;-77
2021/09/18 00:38:45;;;;;;;1.90;1.80;;;19.80;99.90;;;;;;5032281;28;20026;-77
2021/09/18 00:41:10;;;;;;;1.85;1.75;;;19.80;99.90;;;;;;5032200;28;20101;-77
2021/09/18 00:43:36;;;;;;;2.33;1.80;;;19.80;99.90;;;;;;5031112;28;20029;-77
2021/09/18 00:46:02;;;;;;;3.03;1.83;;;19.70;99.90;;;;;;5039819;28;20032;-77
2021/09/18 00:48:28;;;;;;;75.68;44.28;;;19.70;99.90;;;;;;5051560;28;20439;-77
2021/09/18 00:50:54;;;;;;;15.90;12.07;;;19.70;99.90;;;;;;5050443;28;20067;-79
2021/09/18 00:53:20;;;;;;;8.07;5.55;;;19.70;99.90;;;;;;5050740;28;20475;-78
2021/09/18 00:55:46;;;;;;;8.90;7.95;;;19.70;99.90;;;;;;5051793;28;20025;-78
2021/09/18 00:58:12;;;;;;;4.93;4.15;;;19.80;99.90;;;;;;5051996;28;20025;-78
2021/09/18 01:00:38;;;;;;;4.53;2.60;;;19.70;99.90;;;;;;5051870;28;20373;-77
2021/09/18 01:03:03;;;;;;;2.85;2.17;;;19.80;99.90;;;;;;5051761;28;20100;-77
2021/09/18 01:05:30;;;;;;;2.88;2.05;;;19.70;99.90;;;;;;5035400;28;20021;-77
2021/09/18 01:07:59;;;;;;;2.88;1.95;;;19.70;99.90;;;;;;5051374;28;20024;-77
2021/09/18 01:10:25;;;;;;;2.30;1.90;;;19.70;99.90;;;;;;5051071;28;20028;-77
2021/09/18 01:13:20;;;;;;;2.10;1.42;;;19.70;99.90;;;;;;5050192;28;20021;-77
2021/09/18 01:15:47;;;;;;;2.08;1.88;;;19.70;99.90;;;;;;5051021;28;20029;-77
2021/09/18 01:18:13;;;;;;;1.92;1.83;;;19.70;99.90;;;;;;5051455;28;20027;-77
2021/09/18 01:20:41;;;;;;;2.35;2.17;;;19.60;99.90;;;;;;5050805;28;20017;-78
2021/09/18 01:23:08;;;;;;;2.05;1.90;;;19.60;99.90;;;;;;5051441;28;20463;-77
2021/09/18 01:25:36;;;;;;;2.30;1.98;;;19.70;99.90;;;;;;5050412;28;20025;-77
2021/09/18 01:28:03;;;;;;;3.35;1.60;;;19.70;99.90;;;;;;5051328;28;20148;-77
2021/09/18 01:30:32;;;;;;;1.88;1.77;;;19.70;99.90;;;;;;5051363;28;20025;-77
2021/09/18 01:32:59;;;;;;;3.83;1.92;;;19.70;99.90;;;;;;5051355;28;20060;-77
2021/09/18 01:35:25;;;;;;;5.15;2.20;;;19.70;99.90;;;;;;5050912;28;20115;-77
2021/09/18 01:37:51;;;;;;;2.13;2.03;;;19.70;99.90;;;;;;5050800;28;20147;-77
2021/09/18 01:40:35;;;;;;;4.95;2.17;;;19.70;99.90;;;;;;5051147;28;20024;-77
2021/09/18 01:43:01;;;;;;;2.42;1.75;;;19.70;99.90;;;;;;5048585;28;20048;-77
2021/09/18 01:45:27;;;;;;;1.92;1.80;;;19.70;99.90;;;;;;5052502;28;20455;-77
2021/09/18 01:47:55;;;;;;;2.00;1.80;;;19.70;99.90;;;;;;5038637;28;20386;-77
2021/09/18 01:50:33;;;;;;;1.98;1.88;;;19.70;99.90;;;;;;5042081;28;20029;-77
2021/09/18 01:53:02;;;;;;;1.60;1.50;;;19.70;99.90;;;;;;5040581;28;20471;-77
2021/09/18 01:55:28;;;;;;;4.18;1.70;;;19.60;99.90;;;;;;5047347;28;20028;-78
2021/09/18 01:58:00;;;;;;;4.63;1.80;;;19.60;99.90;;;;;;5046472;28;20082;-78
2021/09/18 02:00:31;;;;;;;2.08;1.98;;;19.60;99.90;;;;;;5048177;28;20421;-77
2021/09/18 02:02:57;;;;;;;2.13;1.95;;;19.60;99.90;;;;;;5044306;28;20060;-78
2021/09/18 02:05:25;;;;;;;2.95;1.92;;;19.60;99.90;;;;;;5045210;28;20059;-77
2021/09/18 02:08:13;;;;;;;6.25;2.15;;;19.60;99.90;;;;;;5052744;28;20033;-77
2021/09/18 02:10:39;;;;;;;2.03;1.88;;;19.70;99.90;;;;;;5049900;28;20036;-77
2021/09/18 02:13:08;;;;;;;2.08;1.90;;;19.70;99.90;;;;;;5052901;28;20017;-77
2021/09/18 02:15:37;;;;;;;1.77;1.63;;;19.70;99.90;;;;;;5043379;28;20041;-78
2021/09/18 02:18:05;;;;;;;2.35;2.17;;;19.70;99.90;;;;;;5032679;28;20030;-77
2021/09/18 02:20:31;;;;;;;2.25;1.85;;;19.70;99.90;;;;;;5046624;28;20017;-77
2021/09/18 02:22:57;;;;;;;1.92;1.83;;;19.70;99.90;;;;;;5054688;28;20033;-77
2021/09/18 02:25:24;;;;;;;1.52;1.45;;;19.70;99.90;;;;;;5055093;28;20494;-77
2021/09/18 02:27:50;;;;;;;1.83;1.45;;;19.70;99.90;;;;;;5055662;28;20108;-77
2021/09/18 02:30:19;;;;;;;2.95;1.50;;;19.70;99.90;;;;;;5056243;28;20021;-77
2021/09/18 02:32:45;;;;;;;3.53;2.05;;;19.70;99.90;;;;;;5055735;28;20053;-77
2021/09/18 02:35:14;;;;;;;1.50;1.40;;;19.70;99.90;;;;;;5055671;28;20025;-78
2021/09/18 02:37:40;;;;;;;3.03;1.70;;;19.70;99.90;;;;;;5055577;28;20033;-77
2021/09/18 02:40:09;;;;;;;1.55;1.45;;;19.70;99.90;;;;;;5055815;28;20028;-77
2021/09/18 02:42:39;;;;;;;1.98;1.77;;;19.70;99.90;;;;;;5055924;28;20402;-77
2021/09/18 02:45:07;;;;;;;1.73;1.55;;;19.70;99.90;;;;;;5055912;28;20025;-77
2021/09/18 02:47:33;;;;;;;1.30;1.25;;;19.70;99.90;;;;;;5055631;28;20025;-77
2021/09/18 02:49:58;;;;;;;4.68;1.77;;;19.80;99.90;;;;;;5055570;28;20356;-77
2021/09/18 02:52:24;;;;;;;3.33;1.60;;;19.80;99.90;;;;;;5055654;28;20475;-77
2021/09/18 02:54:50;;;;;;;3.13;1.60;;;19.80;99.90;;;;;;5054279;28;20527;-77
2021/09/18 02:57:15;;;;;;;1.92;1.58;;;19.80;99.90;;;;;;5055212;28;20025;-77
2021/09/18 02:59:41;;;;;;;1.58;1.42;;;19.70;99.90;;;;;;5055483;28;20025;-77
2021/09/18 03:02:07;;;;;;;1.85;1.75;;;19.70;99.90;;;;;;5054486;28;20360;-77
2021/09/18 03:04:33;;;;;;;1.70;1.60;;;19.70;99.90;;;;;;5041925;28;20014;-77
2021/09/18 03:06:59;;;;;;;1.40;1.30;;;19.70;99.90;;;;;;5034109;28;20026;-77
2021/09/18 03:09:25;;;;;;;1.88;1.55;;;19.70;99.90;;;;;;5035539;28;20022;-77
2021/09/18 03:11:51;;;;;;;1.55;1.45;;;19.70;99.90;;;;;;5041418;28;20076;-77
2021/09/18 03:14:17;;;;;;;4.00;1.55;;;19.70;99.90;;;;;;5055303;28;20076;-77
2021/09/18 03:16:43;;;;;;;1.90;1.80;;;19.70;99.90;;;;;;5055017;28;20090;-77
2021/09/18 03:19:09;;;;;;;2.03;1.38;;;19.70;99.90;;;;;;5055030;28;20475;-77
2021/09/18 03:21:35;;;;;;;2.70;1.40;;;19.70;99.90;;;;;;5054881;28;20025;-77
2021/09/18 03:24:01;;;;;;;3.92;1.33;;;19.80;99.90;;;;;;5055152;28;20025;-78
2021/09/18 03:26:27;;;;;;;1.85;1.40;;;19.70;99.90;;;;;;5054630;28;20033;-77
2021/09/18 03:28:52;;;;;;;1.85;1.60;;;19.70;99.90;;;;;;5054711;28;20029;-77
2021/09/18 03:31:18;;;;;;;1.85;1.50;;;19.80;99.90;;;;;;5054502;28;20502;-77
2021/09/18 03:33:49;;;;;;;1.52;1.52;;;19.80;99.90;;;;;;5049366;28;20033;-77
2021/09/18 03:36:15;;;;;;;1.58;1.45;;;19.80;99.90;;;;;;5034575;28;20030;-77
2021/09/18 03:38:40;;;;;;;3.05;1.75;;;19.80;99.90;;;;;;5034965;28;20514;-77
2021/09/18 03:41:06;;;;;;;4.70;1.58;;;19.80;99.90;;;;;;5034939;28;20464;-77
2021/09/18 03:43:32;;;;;;;1.50;1.40;;;19.90;99.90;;;;;;5033699;28;20025;-77
2021/09/18 03:45:58;;;;;;;1.00;1.00;;;19.90;99.90;;;;;;5034807;28;20030;-77
2021/09/18 03:48:23;;;;;;;3.95;1.63;;;19.90;99.90;;;;;;5034737;28;20031;-77
2021/09/18 03:50:49;;;;;;;1.38;1.30;;;19.90;99.90;;;;;;5034839;28;20014;-77
2021/09/18 03:53:15;;;;;;;1.40;1.25;;;19.90;99.90;;;;;;5046829;28;20479;-77
2021/09/18 03:55:41;;;;;;;2.45;1.17;;;19.90;99.90;;;;;;5054668;28;20029;-77
2021/09/18 03:58:07;;;;;;;2.35;1.60;;;20.00;99.90;;;;;;5054526;28;20603;-77
2021/09/18 04:00:32;;;;;;;2.33;2.03;;;20.00;99.90;;;;;;5054295;28;20375;-77
2021/09/18 04:02:58;;;;;;;3.67;2.10;;;20.00;99.90;;;;;;5054416;28;20028;-77
2021/09/18 04:05:24;;;;;;;4.50;2.65;;;20.00;99.90;;;;;;5054302;28;20082;-77
2021/09/18 04:07:50;;;;;;;3.17;2.13;;;20.00;99.90;;;;;;5054273;28;20025;-77
2021/09/18 04:10:15;;;;;;;2.10;2.00;;;20.10;99.90;;;;;;5053905;28;20036;-77
2021/09/18 04:12:41;;;;;;;2.17;1.98;;;20.10;99.90;;;;;;5054153;28;20055;-77
2021/09/18 04:15:08;;;;;;;2.75;1.80;;;20.00;99.90;;;;;;5054181;28;20032;-77
2021/09/18 04:17:33;;;;;;;1.73;1.63;;;20.10;99.90;;;;;;5053986;28;20107;-77
2021/09/18 04:19:59;;;;;;;1.70;1.60;;;20.10;99.90;;;;;;5053932;28;20052;-77
2021/09/18 04:22:25;;;;;;;2.17;2.08;;;20.10;99.90;;;;;;5053078;28;20100;-77
2021/09/18 04:24:51;;;;;;;2.38;2.15;;;20.10;99.90;;;;;;5053735;28;20022;-77
2021/09/18 04:27:17;;;;;;;1.92;1.83;;;20.10;99.90;;;;;;5052337;28;20463;-77
2021/09/18 04:29:42;;;;;;;3.53;1.77;;;20.10;99.90;;;;;;5053639;28;20025;-77
2021/09/18 04:32:08;;;;;;;2.42;2.20;;;20.10;99.90;;;;;;5053576;28;20049;-77
2021/09/18 04:34:34;;;;;;;3.42;2.30;;;20.10;99.90;;;;;;5040052;28;20496;-77
2021/09/18 04:37:00;;;;;;;2.20;2.10;;;20.00;99.90;;;;;;5033555;28;20022;-77
2021/09/18 04:39:26;;;;;;;1.95;1.85;;;20.00;99.90;;;;;;5041691;28;20021;-77
2021/09/18 04:41:52;;;;;;;4.40;2.10;;;20.00;99.90;;;;;;5053683;28;20487;-77
2021/09/18 04:44:17;;;;;;;2.13;2.03;;;20.00;99.90;;;;;;5053588;28;20020;-77
2021/09/18 04:46:43;;;;;;;3.38;2.30;;;20.00;99.90;;;;;;5053382;28;20028;-77
2021/09/18 04:49:10;;;;;;;2.60;2.50;;;19.90;99.90;;;;;;5052670;28;20029;-77
2021/09/18 04:51:36;;;;;;;3.05;2.75;;;19.90;99.90;;;;;;5052992;28;20021;-77
2021/09/18 04:54:02;;;;;;;2.92;2.50;;;19.90;99.90;;;;;;5053380;28;20043;-77
2021/09/18 04:56:28;;;;;;;2.25;2.00;;;19.90;99.90;;;;;;5053067;28;20025;-77
2021/09/18 04:58:54;;;;;;;2.50;2.30;;;19.90;99.90;;;;;;5051920;28;20017;-77
2021/09/18 05:01:20;;;;;;;2.33;2.03;;;19.80;99.90;;;;;;5053091;28;20375;-77
2021/09/18 05:03:45;;;;;;;2.55;2.30;;;19.80;99.90;;;;;;5053186;28;20017;-77
2021/09/18 05:06:11;;;;;;;2.58;2.42;;;19.80;99.90;;;;;;5053026;28;20033;-77
2021/09/18 05:08:37;;;;;;;2.55;1.90;;;19.70;99.90;;;;;;5051593;28;20322;-77
2021/09/18 05:11:03;;;;;;;3.28;2.28;;;19.70;99.90;;;;;;5053052;28;20031;-77
2021/09/18 05:13:28;;;;;;;2.50;2.15;;;19.70;99.90;;;;;;5053370;28;20079;-77
2021/09/18 05:15:54;;;;;;;1.85;1.75;;;19.70;99.90;;;;;;5051659;28;20029;-77
2021/09/18 05:18:20;;;;;;;1.95;1.42;;;19.80;99.90;;;;;;5051864;28;20078;-77
2021/09/18 05:20:45;;;;;;;2.85;1.67;;;19.80;99.90;;;;;;5053292;28;20359;-77
2021/09/18 05:23:11;;;;;;;3.92;1.58;;;19.80;99.90;;;;;;5053168;28;20025;-77
2021/09/18 05:25:37;;;;;;;1.88;1.60;;;19.80;99.90;;;;;;5052934;28;20017;-77
2021/09/18 05:28:03;;;;;;;1.70;1.60;;;19.80;99.90;;;;;;5052526;28;20031;-77
2021/09/18 05:30:28;;;;;;;5.13;1.77;;;19.80;99.90;;;;;;5052207;28;20029;-77
2021/09/18 05:32:54;;;;;;;2.00;1.90;;;19.80;99.90;;;;;;5052846;28;20036;-77
2021/09/18 05:35:20;;;;;;;3.70;1.80;;;19.80;99.90;;;;;;5052532;28;20048;-77
2021/09/18 05:37:46;;;;;;;3.63;1.83;;;19.80;99.90;;;;;;5052379;28;20055;-77
2021/09/18 05:40:12;;;;;;;3.20;1.80;;;19.90;99.90;;;;;;5051478;28;20028;-77
2021/09/18 05:42:37;;;;;;;2.92;2.38;;;19.90;99.90;;;;;;5052568;28;20383;-77
2021/09/18 05:45:06;;;;;;;1.90;1.77;;;19.80;99.90;;;;;;5051102;28;20017;-77
2021/09/18 05:47:32;;;;;;;1.95;1.85;;;19.90;99.90;;;;;;5052346;28;20025;-77
2021/09/18 05:49:58;;;;;;;2.45;1.60;;;19.90;99.90;;;;;;5052411;28;20375;-77
2021/09/18 05:52:23;;;;;;;2.72;1.63;;;19.90;99.90;;;;;;5050567;28;20467;-77
2021/09/18 05:54:49;;;;;;;1.88;1.77;;;19.90;99.90;;;;;;5051753;28;20025;-77
2021/09/18 05:57:15;;;;;;;1.58;1.48;;;20.00;99.90;;;;;;5052011;28;20060;-77
2021/09/18 05:59:41;;;;;;;1.58;1.38;;;20.00;99.90;;;;;;5052250;28;20060;-77
2021/09/18 06:02:06;;;;;;;2.92;1.80;;;20.00;99.90;;;;;;5052791;28;20136;-77
2021/09/18 06:04:32;;;;;;;4.15;1.30;;;20.00;99.90;;;;;;5052335;28;20025;-77
2021/09/18 06:06:58;;;;;;;1.50;1.40;;;20.00;99.90;;;;;;5051913;28;20031;-77
2021/09/18 06:09:24;;;;;;;1.48;1.38;;;20.00;99.90;;;;;;5050647;28;20029;-77
2021/09/18 06:11:49;;;;;;;4.70;1.50;;;20.00;99.90;;;;;;5051388;28;20040;-77
2021/09/18 06:14:15;;;;;;;1.67;1.58;;;20.10;99.90;;;;;;5050010;28;20033;-77
2021/09/18 06:16:41;;;;;;;2.15;1.98;;;20.10;99.90;;;;;;5051219;28;20033;-77
2021/09/18 06:19:06;;;;;;;9.48;2.10;;;20.10;99.90;;;;;;5049889;28;20021;-77
2021/09/18 06:21:32;;;;;;;4.28;2.30;;;20.10;99.90;;;;;;5051343;28;20112;-77
2021/09/18 06:23:58;;;;;;;2.53;2.33;;;20.20;99.90;;;;;;5050054;28;20017;-77
2021/09/18 06:26:24;;;;;;;1.52;1.42;;;20.20;99.90;;;;;;5052264;28;20111;-77
2021/09/18 06:28:50;;;;;;;1.55;1.30;;;20.20;99.90;;;;;;5050801;28;20040;-77
2021/09/18 06:31:16;;;;;;;1.63;1.20;;;20.20;99.90;;;;;;5050835;28;20041;-77
2021/09/18 06:33:41;;;;;;;1.50;1.40;;;20.20;99.90;;;;;;5052065;28;20033;-77
2021/09/18 06:36:07;;;;;;;1.60;1.50;;;20.30;99.90;;;;;;5051906;28;20037;-76
2021/09/18 06:38:33;;;;;;;1.30;1.20;;;20.30;99.90;;;;;;5052170;28;20479;-78
2021/09/18 06:40:59;;;;;;;1.63;1.40;;;20.30;99.90;;;;;;5051926;28;20391;-77
2021/09/18 06:43:28;;;;;;;3.47;1.20;;;20.30;99.90;;;;;;5052082;28;20375;-77
2021/09/18 06:45:54;;;;;;;1.65;1.20;;;20.40;99.90;;;;;;5051568;28;20489;-76
2021/09/18 06:48:20;;;;;;;4.00;1.20;;;20.40;99.90;;;;;;5055743;28;20032;-77
2021/09/18 06:50:46;;;;;;;2.53;1.38;;;20.40;99.90;;;;;;5055355;28;20029;-77
2021/09/18 06:53:12;;;;;;;1.05;1.05;;;20.50;99.90;;;;;;5055158;28;20075;-77
2021/09/18 06:55:38;;;;;;;1.17;1.13;;;20.50;99.90;;;;;;5055674;28;20025;-77
2021/09/18 06:58:04;;;;;;;3.03;1.63;;;20.50;99.90;;;;;;5055118;28;20028;-77
2021/09/18 07:00:31;;;;;;;1.58;1.20;;;20.60;99.90;;;;;;5055610;28;20021;-77
2021/09/18 07:02:57;;;;;;;1.75;1.40;;;20.60;99.90;;;;;;5054115;28;20036;-77
2021/09/18 07:05:23;;;;;;;1.73;1.60;;;20.70;99.90;;;;;;5055288;28;20025;-77
2021/09/18 07:07:49;;;;;;;1.85;1.52;;;20.70;99.90;;;;;;5053991;28;20083;-77
2021/09/18 07:10:15;;;;;;;1.63;1.45;;;20.80;99.90;;;;;;5054302;28;20370;-77
2021/09/18 07:12:42;;;;;;;2.70;1.55;;;20.80;99.90;;;;;;5054248;28;20111;-77
2021/09/18 07:15:10;;;;;;;5.15;1.85;;;20.80;99.90;;;;;;5054338;28;20520;-77
2021/09/18 07:17:36;;;;;;;1.65;1.50;;;20.80;99.90;;;;;;5053728;28;20053;-77
2021/09/18 07:20:02;;;;;;;1.92;1.52;;;20.80;99.90;;;;;;5054126;28;20075;-76
2021/09/18 07:22:28;;;;;;;1.90;1.67;;;20.90;99.90;;;;;;5054897;28;20021;-77
2021/09/18 07:24:54;;;;;;;2.20;1.92;;;21.00;99.90;;;;;;5054927;28;20018;-77
2021/09/18 07:27:21;;;;;;;2.33;2.15;;;21.00;99.90;;;;;;5054620;28;20033;-77
2021/09/18 07:29:47;;;;;;;2.75;2.45;;;21.10;99.90;;;;;;5054730;28;20092;-77
2021/09/18 07:32:13;;;;;;;2.47;2.28;;;21.10;99.90;;;;;;5054428;28;20052;-77
2021/09/18 07:34:39;;;;;;;2.05;1.88;;;21.10;99.90;;;;;;5041435;28;20033;-77
2021/09/18 07:37:05;;;;;;;2.53;2.33;;;21.10;99.90;;;;;;5034540;28;20025;-77
2021/09/18 07:39:32;;;;;;;2.30;2.20;;;21.10;99.90;;;;;;5034591;28;20411;-77
2021/09/18 07:41:58;;;;;;;2.60;2.47;;;21.10;99.90;;;;;;5034874;28;20029;-77
2021/09/18 07:44:24;;;;;;;2.92;2.72;;;21.10;99.90;;;;;;5034805;28;20014;-77
2021/09/18 07:46:50;;;;;;;3.15;2.88;;;21.10;99.90;;;;;;5038227;28;20088;-77
2021/09/18 07:49:19;;;;;;;11.27;3.83;;;21.20;99.90;;;;;;5054266;28;20038;-76
2021/09/18 07:51:45;;;;;;;5.93;3.17;;;21.20;99.90;;;;;;5053137;28;20025;-77
2021/09/18 07:54:11;;;;;;;5.03;3.53;;;21.30;99.90;;;;;;5054433;28;20029;-77
2021/09/18 07:56:37;;;;;;;6.90;3.55;;;21.30;99.90;;;;;;5054161;28;20029;-76
2021/09/18 07:59:03;;;;;;;9.25;3.47;;;21.40;99.90;;;;;;5058859;28;20095;-77
2021/09/18 08:01:30;;;;;;;3.10;2.90;;;21.30;99.90;;;;;;5074383;28;20020;-77
2021/09/18 08:04:03;;;;;;;3.50;3.20;;;21.40;99.90;;;;;;5066936;28;20112;-77
2021/09/18 08:06:35;;;;;;;3.15;2.95;;;21.40;99.90;;;;;;5053832;28;20021;-77
2021/09/18 08:09:01;;;;;;;;;;;21.50;99.90;;;;;;5054570;28;20108;-77
2021/09/18 08:11:27;;;;;;;7.18;3.65;;;21.50;99.90;;;;;;5054358;28;19947;-77
2021/09/18 08:13:54;;;;;;;6.45;3.38;;;21.50;99.90;;;;;;5054035;28;20033;-77
2021/09/18 08:16:21;;;;;;;8.35;3.60;;;21.60;99.90;;;;;;5053932;28;20029;-77
2021/09/18 08:18:47;;;;;;;3.75;3.42;;;21.60;99.90;;;;;;5053750;28;20021;-77
2021/09/18 08:21:13;;;;;;;4.15;3.78;;;21.60;99.90;;;;;;5053916;28;20105;-77
2021/09/18 08:23:40;;;;;;;6.82;4.05;;;21.60;99.90;;;;;;5052333;28;20108;-77
2021/09/18 08:26:06;;;;;;;4.15;3.85;;;21.60;99.90;;;;;;5053887;28;20025;-77
2021/09/18 08:28:32;;;;;;;6.75;4.00;;;21.60;99.90;;;;;;5054006;28;20100;-77
2021/09/18 08:30:57;;;;;;;7.35;4.68;;;21.60;99.90;;;;;;5053508;28;20128;-77
2021/09/18 08:33:23;;;;;;;9.38;5.40;;;21.60;99.90;;;;;;5053303;28;20043;-77
2021/09/18 08:35:49;;;;;;;6.88;4.50;;;21.70;99.90;;;;;;5053541;28;20013;-77
2021/09/18 08:38:15;;;;;;;5.20;4.70;;;21.70;99.90;;;;;;5051925;28;20368;-77
2021/09/18 08:40:41;;;;;;;5.65;5.15;;;21.70;99.90;;;;;;5049421;28;20513;-77
2021/09/18 08:43:07;;;;;;;12.20;5.47;;;21.80;99.90;;;;;;5049432;28;20108;-77
2021/09/18 08:45:34;;;;;;;5.88;4.90;;;21.70;99.90;;;;;;5048906;28;20025;-77
2021/09/18 08:48:06;;;;;;;7.55;5.47;;;21.80;99.90;;;;;;5049749;28;20043;-77
2021/09/18 08:50:33;;;;;;;4.68;4.20;;;21.80;99.90;;;;;;5049866;28;20056;-77
2021/09/18 08:52:59;;;;;;;9.35;4.70;;;21.90;99.90;;;;;;5049228;28;20021;-77
2021/09/18 08:55:25;;;;;;;6.03;4.55;;;21.90;99.90;;;;;;5050017;28;20513;-77
2021/09/18 08:57:51;;;;;;;7.78;4.72;;;21.90;99.90;;;;;;5050283;28;20025;-77
2021/09/18 09:00:47;;;;;;;6.63;4.78;;;21.90;99.90;;;;;;5049855;28;20100;-77
2021/09/18 09:03:14;;;;;;;7.43;5.18;;;21.90;99.90;;;;;;5044963;28;20514;-77
2021/09/18 09:05:54;;;;;;;6.28;4.95;;;21.80;99.90;;;;;;5048560;28;20024;-77
2021/09/18 09:08:22;;;;;;;7.25;4.95;;;21.90;99.90;;;;;;5047730;28;20052;-77
2021/09/18 09:10:48;;;;;;;6.18;5.05;;;21.90;99.90;;;;;;5049566;28;20166;-77
2021/09/18 09:13:17;;;;;;;7.80;5.53;;;21.90;99.90;;;;;;5050025;28;20116;-77
2021/09/18 09:15:45;;;;;;;5.53;4.82;;;21.90;99.90;;;;;;5048517;28;20029;-77
2021/09/18 09:18:18;;;;;;;7.47;5.00;;;21.90;99.90;;;;;;5048734;28;20039;-77
2021/09/18 09:20:44;;;;;;;7.65;4.80;;;21.90;99.90;;;;;;5048813;28;20017;-77
2021/09/18 09:23:19;;;;;;;4.82;4.40;;;22.00;99.90;;;;;;5050013;28;20021;-76
2021/09/18 09:25:50;;;;;;;6.80;4.53;;;22.10;99.90;;;;;;5050136;28;20367;-76
2021/09/18 09:28:22;;;;;;;10.05;5.43;;;22.10;99.90;;;;;;5047845;28;20025;-77
2021/09/18 09:30:49;;;;;;;7.45;4.38;;;22.20;99.90;;;;;;5048015;28;20048;-77
2021/09/18 09:33:15;;;;;;;4.80;4.40;;;22.30;99.90;;;;;;5048092;28;20033;-77
2021/09/18 09:35:42;;;;;;;9.50;4.63;;;22.40;99.90;;;;;;5033633;28;20024;-76
2021/09/18 09:38:09;;;;;;;6.13;4.40;;;22.40;99.90;;;;;;5049080;28;20033;-76
2021/09/18 09:40:37;;;;;;;5.47;4.50;;;22.40;99.90;;;;;;5048195;28;20029;-77
2021/09/18 09:43:04;;;;;;;5.20;4.60;;;22.50;99.90;;;;;;5048033;28;20475;-76
2021/09/18 09:45:31;;;;;;;4.63;4.22;;;22.50;99.90;;;;;;5048740;28;20017;-77
2021/09/18 09:48:21;;;;;;;5.18;4.20;;;22.50;99.90;;;;;;5048995;28;20032;-77
2021/09/18 09:51:00;;;;;;;7.03;4.80;;;22.60;99.90;;;;;;5046162;28;20047;-76
2021/09/18 09:53:31;;;;;;;5.45;4.88;;;22.70;99.90;;;;;;5051274;28;20025;-76
2021/09/18 09:55:57;;;;;;;9.90;5.00;;;22.70;99.90;;;;;;5050820;28;20029;-76
2021/09/18 09:58:24;;;;;;;7.07;5.07;;;22.70;99.90;;;;;;5050518;28;20032;-76
2021/09/18 10:00:53;;;;;;;5.32;4.93;;;22.70;99.90;;;;;;5048698;28;20099;-76
2021/09/18 10:03:21;;;;;;;5.47;4.50;;;22.80;99.90;;;;;;5043715;28;20344;-76
2021/09/18 10:05:51;;;;;;;5.35;4.57;;;22.90;99.90;;;;;;5043712;28;20029;-76
2021/09/18 10:08:26;;;;;;;5.35;4.80;;;23.00;99.90;;;;;;5046288;28;20083;-76
2021/09/18 10:10:53;;;;;;;5.43;4.20;;;23.10;99.90;;;;;;5048919;28;20039;-76
2021/09/18 10:13:23;;;;;;;5.72;3.30;;;23.10;99.90;;;;;;5047917;28;20060;-76
2021/09/18 10:15:51;;;;;;;6.85;3.95;;;23.20;99.90;;;;;;5047592;28;20029;-76
2021/09/18 10:18:17;;;;;;;8.25;3.72;;;23.20;99.90;;;;;;5047464;28;20029;-76
2021/09/18 10:23:20;;;;;;;7.13;3.95;;;23.30;99.90;;;;;;5052367;28;20599;-76
2021/09/18 10:25:49;;;;;;;6.63;3.90;;;23.30;99.90;;;;;;5049714;28;20070;-76
2021/09/18 10:28:25;;;;;;;6.50;2.85;;;23.30;99.90;;;;;;5041877;28;20035;-76
2021/09/18 10:30:59;;;;;;;3.60;2.88;;;23.40;99.90;;;;;;5051263;28;20482;-76
2021/09/18 10:33:40;;;;;;;3.83;2.70;;;23.40;99.90;;;;;;5049912;28;20040;-76
2021/09/18 10:36:15;;;;;;;4.50;2.47;;;23.40;99.90;;;;;;5048738;28;20429;-77
2021/09/18 10:38:44;;;;;;;8.07;2.63;;;23.40;99.90;;;;;;5049054;28;20021;-76
2021/09/18 10:41:26;;;;;;;4.53;2.60;;;23.40;99.90;;;;;;5051927;28;20025;-76
2021/09/18 10:43:56;;;;;;;3.38;2.10;;;23.50;99.90;;;;;;5062495;28;20051;-76
2021/09/18 10:46:44;;;;;;;3.15;2.05;;;23.40;99.90;;;;;;5037413;22;20403;-76
2021/09/18 10:49:34;;;;;;;1.75;1.42;;;23.40;99.90;;;;;;5017414;28;20022;-76
2021/09/18 10:52:25;;;;;;;3.03;1.95;;;23.40;99.90;;;;;;5013009;28;20475;-76
2021/09/18 10:55:17;;;;;;;2.08;1.95;;;23.50;99.90;;;;;;5015006;28;20456;-76
2021/09/18 10:57:45;;;;;;;3.80;1.70;;;23.40;99.90;;;;;;5008379;28;20076;-76
2021/09/18 11:00:20;;;;;;;2.08;1.98;;;23.50;99.90;;;;;;5013982;28;20057;-76
2021/09/18 11:02:53;;;;;;;2.00;1.90;;;23.50;99.90;;;;;;5010798;28;20391;-76
2021/09/18 11:05:21;;;;;;;1.65;1.55;;;23.50;99.90;;;;;;5010812;28;20018;-76
2021/09/18 11:07:52;;;;;;;2.28;1.60;;;23.60;99.90;;;;;;5009532;28;20040;-76
2021/09/18 11:10:20;;;;;;;4.72;1.80;;;23.70;99.90;;;;;;5010051;28;20558;-76
2021/09/18 11:13:25;;;;;;;3.17;1.30;;;23.80;99.90;;;;;;5010500;28;20065;-76
2021/09/18 11:15:56;;;;;;;2.53;1.80;;;23.90;99.90;;;;;;4907606;29;20517;-76
2021/09/18 11:18:34;;;;;;;2.00;1.73;;;23.90;99.90;;;;;;4911537;29;20021;-76
2021/09/18 11:21:07;;;;;;;4.85;1.80;;;23.80;99.90;;;;;;4969254;28;20041;-76
2021/09/18 11:24:00;;;;;;;2.45;1.60;;;23.90;99.90;;;;;;5010741;28;20018;-76
2021/09/18 11:26:33;;;;;;;1.60;1.50;;;23.90;99.90;;;;;;4985425;28;20051;-77
2021/09/18 11:29:15;;;;;;;3.15;2.17;;;24.00;99.90;;;;;;5034431;28;20364;-76
2021/09/18 11:31:55;;;;;;;2.10;1.60;;;23.90;99.90;;;;;;5010990;28;20029;-77
2021/09/18 11:34:26;;;;;;;2.28;1.77;;;23.90;99.90;;;;;;5010198;28;20680;-76
2021/09/18 11:36:54;;;;;;;2.88;1.52;;;24.00;99.90;;;;;;5011392;28;20452;-77
2021/09/18 11:39:53;;;;;;;2.95;1.40;;;24.00;99.90;;;;;;5009337;28;20026;-76
2021/09/18 11:42:22;;;;;;;1.92;1.25;;;24.00;99.90;;;;;;5009970;28;20022;-76
2021/09/18 11:44:51;;;;;;;1.08;1.08;;;24.00;99.90;;;;;;5007266;28;20041;-76
2021/09/18 11:47:36;;;;;;;3.88;2.13;;;24.00;99.90;;;;;;5008886;28;20042;-76
2021/09/18 11:50:16;;;;;;;1.35;1.20;;;24.00;99.90;;;;;;5008974;28;20119;-76
2021/09/18 11:52:42;;;;;;;1.27;1.17;;;24.10;99.90;;;;;;5007050;28;20488;-76
2021/09/18 11:55:28;;;;;;;3.25;1.02;;;24.20;99.90;;;;;;5011418;28;20040;-77
2021/09/18 11:58:12;;;;;;;2.08;1.73;;;24.30;99.90;;;;;;5011092;28;20464;-77
2021/09/18 12:00:54;;;;;;;3.85;1.50;;;24.40;99.90;;;;;;5011021;28;20030;-76
2021/09/18 12:03:42;;;;;;;2.35;1.50;;;24.50;99.90;;;;;;5008829;28;20484;-76
2021/09/18 12:06:11;;;;;;;3.45;1.40;;;24.60;99.90;;;;;;5009550;28;20033;-76
2021/09/18 12:08:38;;;;;;;1.30;1.20;;;24.60;99.90;;;;;;5010549;28;20026;-76
2021/09/18 12:11:07;;;;;;;1.63;1.50;;;24.70;99.90;;;;;;5011161;28;20026;-76
2021/09/18 12:13:41;;;;;;;1.73;1.42;;;24.80;99.90;;;;;;5009710;28;20022;-76
2021/09/18 12:16:07;;;;;;;3.13;1.60;;;24.80;99.90;;;;;;5009243;28;20605;-76
2021/09/18 12:18:41;;;;;;;1.88;1.40;;;24.90;99.90;;;;;;5008198;28;20500;-75
2021/09/18 12:21:11;;;;;;;1.48;1.38;;;25.00;99.90;;;;;;5007409;28;20026;-76
2021/09/18 12:23:43;;;;;;;3.40;2.05;;;25.00;99.90;;;;;;5007402;28;20056;-76
2021/09/18 12:26:09;;;;;;;1.60;1.25;;;25.00;99.20;;;;;;5009380;28;20061;-76
2021/09/18 12:28:38;;;;;;;3.15;1.63;;;24.90;99.70;;;;;;5008153;28;20109;-76
2021/09/18 12:31:20;;;;;;;2.55;1.67;;;24.90;99.60;;;;;;5041502;28;20483;-76
2021/09/18 12:33:47;;;;;;;2.33;1.77;;;25.10;99.90;;;;;;5010379;28;20064;-76
2021/09/18 12:36:16;;;;;;;2.97;1.30;;;25.20;99.90;;;;;;5010109;28;20520;-76
2021/09/18 12:38:44;;;;;;;6.07;1.60;;;25.30;99.90;;;;;;5008413;28;20050;-76
2021/09/18 12:41:12;;;;;;;1.92;1.70;;;25.30;99.90;;;;;;5007901;28;20030;-76
2021/09/18 12:43:53;;;;;;;2.92;1.58;;;25.30;99.80;;;;;;5006914;28;20499;-76
2021/09/18 12:46:18;;;;;;;3.78;1.70;;;25.30;99.40;;;;;;5007586;28;20042;-77
2021/09/18 12:49:02;;;;;;;3.92;1.67;;;25.30;99.20;;;;;;5007996;28;20041;-76
2021/09/18 12:51:29;;;;;;;2.15;2.00;;;25.30;98.40;;;;;;5008726;28;20021;-76
2021/09/18 12:53:57;;;;;;;5.95;2.40;;;25.20;99.00;;;;;;5011049;28;20449;-76
2021/09/18 12:56:28;;;;;;;2.72;2.38;;;25.30;99.70;;;;;;5009238;28;20198;-76
2021/09/18 12:59:06;;;;;;;1.98;1.88;;;25.20;98.40;;;;;;5008588;28;20038;-76